Time;durP1;ratioP1;P1;durP2;ratioP2;P2;SDS_P1;SDS_P2;PMS_P1;PMS_P2;Temp;Humidity;BMP_temperature;BMP_pressure;BME280_temperature;BME280_humidity;BME280_pressure;Samples;Min_cycle;Max_cycle;Signal;HPM_P1;HPM_P2
2023/04/09 00:02:11;;;;;;;120.55;110.13;;;8.90;99.90;;;;;;5115832;27;20054;-70
2023/04/09 00:04:37;;;;;;;119.13;109.00;;;8.90;99.90;;;;;;5082303;28;20422;-70
2023/04/09 00:07:03;;;;;;;118.05;107.55;;;8.90;99.90;;;;;;5083185;28;20047;-70
2023/04/09 00:09:28;;;;;;;114.30;104.25;;;8.90;99.90;;;;;;5080560;28;20040;-71
2023/04/09 00:11:55;;;;;;;126.50;115.40;;;8.90;99.90;;;;;;5084255;28;20094;-70
2023/04/09 00:14:21;;;;;;;131.10;120.13;;;8.80;99.90;;;;;;5083726;28;20113;-70
2023/04/09 00:16:47;;;;;;;128.35;117.35;;;8.80;99.90;;;;;;5081276;28;20036;-70
2023/04/09 00:19:12;;;;;;;126.47;115.20;;;8.80;99.90;;;;;;5079983;28;20438;-70
2023/04/09 00:21:38;;;;;;;131.13;119.40;;;8.80;99.90;;;;;;5082048;28;20101;-69
2023/04/09 00:24:04;;;;;;;135.90;124.78;;;8.80;99.90;;;;;;5048433;28;20051;-69
2023/04/09 00:26:30;;;;;;;120.00;108.70;;;8.80;99.90;;;;;;5081378;28;20048;-69
2023/04/09 00:28:56;;;;;;;123.07;112.45;;;8.70;99.90;;;;;;5097819;28;20056;-69
2023/04/09 00:31:21;;;;;;;128.52;117.40;;;8.70;99.90;;;;;;5097717;28;20418;-70
2023/04/09 00:33:47;;;;;;;122.57;111.28;;;8.70;99.90;;;;;;5081610;28;20494;-70
2023/04/09 00:36:13;;;;;;;128.05;116.82;;;8.70;99.90;;;;;;5066394;28;20414;-71
2023/04/09 00:38:38;;;;;;;119.72;108.93;;;8.70;99.90;;;;;;5085842;28;20032;-70
2023/04/09 00:41:04;;;;;;;125.03;113.65;;;8.60;99.90;;;;;;5078962;28;20043;-70
2023/04/09 00:43:30;;;;;;;118.20;107.20;;;8.60;99.90;;;;;;5078669;28;20078;-70
2023/04/09 00:45:57;;;;;;;117.75;107.10;;;8.60;99.90;;;;;;5082740;28;20510;-70
2023/04/09 00:48:22;;;;;;;122.05;111.07;;;8.60;99.90;;;;;;5077894;28;20396;-70
2023/04/09 00:50:48;;;;;;;121.45;110.22;;;8.60;99.90;;;;;;5082684;28;20085;-69
2023/04/09 00:53:14;;;;;;;114.10;103.10;;;8.60;99.90;;;;;;5082410;28;20039;-69
2023/04/09 00:55:40;;;;;;;119.25;108.57;;;8.50;99.90;;;;;;5114132;27;20089;-69
2023/04/09 00:58:06;;;;;;;116.40;105.50;;;8.60;99.90;;;;;;5064408;28;20040;-69
2023/04/09 01:00:32;;;;;;;89.05;75.88;;;8.50;99.90;;;;;;5093016;28;20217;-70
2023/04/09 01:02:58;;;;;;;104.30;94.32;;;8.60;99.90;;;;;;5066120;28;20728;-71
2023/04/09 01:05:32;;;;;;;101.70;91.35;;;8.60;99.90;;;;;;5079948;28;20528;-71
2023/04/09 01:08:31;;;;;;;105.07;95.15;;;8.50;99.90;;;;;;5067555;28;20043;-70
2023/04/09 01:11:30;;;;;;;84.53;74.38;;;8.50;99.90;;;;;;5087954;28;20051;-71
2023/04/09 01:14:17;;;;;;;85.65;76.70;;;8.50;99.90;;;;;;5086846;28;20036;-70
2023/04/09 01:16:50;;;;;;;91.75;82.28;;;8.50;99.90;;;;;;5077493;28;20031;-71
2023/04/09 01:19:42;;;;;;;84.38;74.13;;;8.50;99.90;;;;;;5074623;28;20465;-71
2023/04/09 01:22:22;;;;;;;82.35;70.93;;;8.40;99.90;;;;;;5074344;28;20050;-71
2023/04/09 01:25:03;;;;;;;68.07;58.15;;;8.40;99.90;;;;;;5084145;28;20043;-71
2023/04/09 01:27:53;;;;;;;80.97;72.35;;;8.40;99.90;;;;;;5081437;28;20046;-71
2023/04/09 01:30:20;;;;;;;84.78;74.90;;;8.40;99.90;;;;;;5075105;28;20635;-71
2023/04/09 01:32:46;;;;;;;77.60;69.10;;;8.40;99.90;;;;;;5100644;28;20040;-71
2023/04/09 01:35:13;;;;;;;75.55;63.70;;;8.30;99.90;;;;;;5064954;28;20123;-71
2023/04/09 01:37:39;;;;;;;73.60;65.38;;;8.30;99.90;;;;;;5082280;28;20039;-71
2023/04/09 01:40:06;;;;;;;74.65;64.80;;;8.30;99.90;;;;;;5070673;28;20414;-71
2023/04/09 01:42:32;;;;;;;70.65;62.78;;;8.30;99.90;;;;;;5119041;27;20564;-70
2023/04/09 01:44:59;;;;;;;72.10;60.45;;;8.30;99.90;;;;;;5085288;28;20051;-70
2023/04/09 01:47:26;;;;;;;73.53;62.88;;;8.30;99.90;;;;;;5083741;28;20044;-70
2023/04/09 01:49:52;;;;;;;73.53;65.95;;;8.30;99.90;;;;;;5083939;28;20384;-70
2023/04/09 01:52:18;;;;;;;75.70;68.00;;;8.30;99.90;;;;;;5115618;27;20488;-70
2023/04/09 01:54:44;;;;;;;71.82;64.13;;;8.30;99.90;;;;;;5083555;28;20036;-71
2023/04/09 01:57:10;;;;;;;76.15;58.60;;;8.30;99.90;;;;;;5080965;28;20596;-70
2023/04/09 01:59:35;;;;;;;66.35;59.20;;;8.30;99.90;;;;;;5085199;28;20065;-71
2023/04/09 02:02:09;;;;;;;70.25;61.78;;;8.30;99.90;;;;;;5085321;28;20050;-71
2023/04/09 02:04:39;;;;;;;69.67;56.13;;;8.30;99.90;;;;;;5068928;28;20480;-71
2023/04/09 02:07:09;;;;;;;67.35;53.70;;;8.30;99.90;;;;;;5084071;28;20290;-70
2023/04/09 02:09:38;;;;;;;65.10;49.53;;;8.20;99.90;;;;;;5085753;28;20462;-69
2023/04/09 02:12:09;;;;;;;59.10;50.92;;;8.20;99.90;;;;;;5115312;27;20414;-71
2023/04/09 02:14:36;;;;;;;52.65;46.95;;;8.20;99.90;;;;;;5079779;28;20766;-70
2023/04/09 02:17:02;;;;;;;56.28;47.40;;;8.20;99.90;;;;;;5079877;28;20043;-69
2023/04/09 02:19:42;;;;;;;55.47;49.58;;;8.20;99.90;;;;;;5085002;28;20040;-70
2023/04/09 02:22:08;;;;;;;54.35;48.55;;;8.20;99.90;;;;;;5083270;28;20048;-70
2023/04/09 02:24:33;;;;;;;54.88;49.20;;;8.20;99.90;;;;;;5086948;28;20051;-69
2023/04/09 02:26:59;;;;;;;58.42;52.05;;;8.10;99.90;;;;;;5084137;28;20441;-69
2023/04/09 02:29:24;;;;;;;54.13;48.53;;;8.10;99.90;;;;;;5068832;28;20522;-71
2023/04/09 02:31:52;;;;;;;58.95;48.33;;;8.10;99.90;;;;;;5082053;28;20055;-70
2023/04/09 02:34:18;;;;;;;57.92;49.92;;;8.10;99.90;;;;;;5086900;28;20051;-70
2023/04/09 02:36:43;;;;;;;53.90;47.53;;;8.10;99.90;;;;;;5082809;28;20039;-70
2023/04/09 02:39:09;;;;;;;59.67;48.47;;;8.10;99.90;;;;;;5085080;28;20050;-70
2023/04/09 02:41:34;;;;;;;54.80;47.60;;;8.00;99.90;;;;;;5083547;28;20048;-70
2023/04/09 02:44:00;;;;;;;54.35;47.47;;;8.00;99.90;;;;;;5079083;28;20083;-71
2023/04/09 02:46:26;;;;;;;57.63;49.60;;;8.00;99.90;;;;;;5083244;28;20035;-70
2023/04/09 02:48:51;;;;;;;59.03;49.03;;;8.00;99.90;;;;;;5082606;28;20126;-71
2023/04/09 02:51:17;;;;;;;54.75;48.35;;;8.00;99.90;;;;;;5068504;28;20036;-70
2023/04/09 02:53:44;;;;;;;60.08;48.88;;;8.00;99.90;;;;;;5080127;28;20039;-69
2023/04/09 02:56:10;;;;;;;54.42;48.85;;;7.90;99.90;;;;;;5086434;28;20043;-70
2023/04/09 02:58:35;;;;;;;55.83;47.80;;;7.90;99.90;;;;;;5083629;28;20062;-69
2023/04/09 03:01:01;;;;;;;54.83;48.30;;;7.90;99.90;;;;;;5083654;28;20463;-71
2023/04/09 03:03:27;;;;;;;55.33;48.03;;;7.80;99.90;;;;;;5082419;28;20043;-69
2023/04/09 03:05:52;;;;;;;54.00;46.75;;;7.80;99.90;;;;;;5080156;28;20916;-69
2023/04/09 03:08:18;;;;;;;54.80;48.83;;;7.70;99.90;;;;;;5068369;28;20044;-70
2023/04/09 03:10:43;;;;;;;57.90;50.58;;;7.70;99.90;;;;;;5082307;28;20031;-71
2023/04/09 03:13:09;;;;;;;54.05;48.47;;;7.70;99.90;;;;;;5083224;28;20036;-71
2023/04/09 03:15:35;;;;;;;54.38;48.63;;;7.60;99.90;;;;;;5087145;28;20491;-69
2023/04/09 03:18:00;;;;;;;52.45;46.95;;;7.60;99.90;;;;;;5066470;28;20059;-69
2023/04/09 03:20:26;;;;;;;54.33;48.33;;;7.60;99.90;;;;;;5081928;28;20035;-69
2023/04/09 03:22:51;;;;;;;53.97;48.13;;;7.60;99.90;;;;;;5075228;28;20131;-70
2023/04/09 03:25:19;;;;;;;52.20;46.60;;;7.60;99.90;;;;;;5118833;27;20115;-70
2023/04/09 03:27:45;;;;;;;55.22;49.33;;;7.60;99.90;;;;;;5061689;28;20028;-70
2023/04/09 03:30:11;;;;;;;56.80;50.80;;;7.50;99.90;;;;;;5080948;28;20105;-71
2023/04/09 03:32:36;;;;;;;59.80;50.28;;;7.50;99.90;;;;;;5077222;28;20064;-71
2023/04/09 03:35:02;;;;;;;53.15;47.47;;;7.50;99.90;;;;;;5116050;27;20047;-71
2023/04/09 03:37:28;;;;;;;54.80;48.90;;;7.50;99.90;;;;;;5066350;28;20035;-70
2023/04/09 03:39:53;;;;;;;56.10;49.95;;;7.50;99.90;;;;;;5066245;28;20050;-70
2023/04/09 03:42:19;;;;;;;57.47;51.72;;;7.50;99.90;;;;;;5118169;27;20509;-69
2023/04/09 03:44:45;;;;;;;54.88;49.08;;;7.50;99.90;;;;;;5080228;28;20047;-69
2023/04/09 03:47:10;;;;;;;56.38;49.22;;;7.40;99.90;;;;;;5081056;28;20043;-69
2023/04/09 03:49:36;;;;;;;56.00;50.00;;;7.40;99.90;;;;;;5079978;28;20036;-69
2023/04/09 03:52:02;;;;;;;55.10;48.97;;;7.40;99.90;;;;;;5081045;28;20036;-71
2023/04/09 03:54:31;;;;;;;53.97;48.05;;;7.40;99.90;;;;;;5082687;28;20044;-71
2023/04/09 03:56:56;;;;;;;53.92;48.22;;;7.40;99.90;;;;;;5116862;27;20040;-70
2023/04/09 03:59:22;;;;;;;57.05;50.40;;;7.40;99.90;;;;;;5079335;28;20028;-70
2023/04/09 04:01:48;;;;;;;56.55;49.17;;;7.40;99.90;;;;;;5082357;28;20104;-71
2023/04/09 04:04:13;;;;;;;56.30;49.33;;;7.50;99.90;;;;;;5082056;28;20433;-70
2023/04/09 04:06:39;;;;;;;58.10;51.53;;;7.50;99.90;;;;;;5085323;28;20077;-71
2023/04/09 04:09:05;;;;;;;58.05;51.85;;;7.50;99.90;;;;;;5076550;28;20040;-70
2023/04/09 04:11:30;;;;;;;58.28;52.25;;;7.50;99.90;;;;;;5087158;28;20044;-71
2023/04/09 04:13:56;;;;;;;57.78;50.38;;;7.50;99.90;;;;;;5084487;28;20062;-70
2023/04/09 04:16:22;;;;;;;57.63;51.58;;;7.50;99.90;;;;;;5078184;28;20475;-71
2023/04/09 04:18:47;;;;;;;58.13;51.90;;;7.50;99.90;;;;;;5081373;28;20039;-71
2023/04/09 04:21:13;;;;;;;55.58;49.70;;;7.50;99.90;;;;;;5083609;28;20472;-70
2023/04/09 04:23:39;;;;;;;61.05;54.42;;;7.60;99.90;;;;;;5084984;28;20050;-70
2023/04/09 04:26:09;;;;;;;58.85;50.92;;;7.60;99.90;;;;;;5084329;28;20043;-70
2023/04/09 04:28:35;;;;;;;58.53;52.15;;;7.60;99.90;;;;;;5079643;28;20051;-69
2023/04/09 04:31:01;;;;;;;54.83;48.35;;;7.60;99.90;;;;;;5064987;28;20766;-71
2023/04/09 04:33:27;;;;;;;56.58;50.08;;;7.60;99.90;;;;;;5081108;28;20040;-70
2023/04/09 04:35:53;;;;;;;54.03;48.53;;;7.60;99.90;;;;;;5085545;28;20423;-71
2023/04/09 04:38:18;;;;;;;54.53;48.33;;;7.60;99.90;;;;;;5065430;28;20608;-70
2023/04/09 04:40:44;;;;;;;57.20;48.25;;;7.60;99.90;;;;;;5070975;28;20028;-70
2023/04/09 04:43:09;;;;;;;52.03;46.38;;;7.60;99.90;;;;;;5076408;28;20039;-70
2023/04/09 04:45:35;;;;;;;56.70;49.40;;;7.60;99.90;;;;;;5079847;28;20051;-71
2023/04/09 04:48:01;;;;;;;58.05;49.60;;;7.60;99.90;;;;;;5082661;28;20039;-69
2023/04/09 04:50:26;;;;;;;57.67;49.25;;;7.60;99.90;;;;;;5081841;28;20082;-70
2023/04/09 04:52:52;;;;;;;59.05;50.35;;;7.60;99.90;;;;;;5081132;28;20479;-71
2023/04/09 04:55:17;;;;;;;54.78;48.58;;;7.60;99.90;;;;;;5083122;28;20037;-71
2023/04/09 04:57:43;;;;;;;52.85;46.97;;;7.60;99.90;;;;;;5113016;27;20036;-71
2023/04/09 05:00:09;;;;;;;53.50;46.47;;;7.70;99.90;;;;;;5065912;28;20047;-71
2023/04/09 05:02:35;;;;;;;56.70;46.78;;;7.70;99.90;;;;;;5077295;28;20054;-71
2023/04/09 05:05:00;;;;;;;51.33;45.78;;;7.70;99.90;;;;;;5066581;28;20043;-71
2023/04/09 05:07:26;;;;;;;49.67;44.25;;;7.70;99.90;;;;;;5084239;28;20073;-71
2023/04/09 05:09:52;;;;;;;52.17;44.78;;;7.70;99.90;;;;;;5064161;28;20108;-71
2023/04/09 05:12:18;;;;;;;51.78;46.15;;;7.70;99.90;;;;;;5082014;28;20151;-70
2023/04/09 05:14:43;;;;;;;57.35;47.88;;;7.70;99.90;;;;;;5067361;28;20123;-71
2023/04/09 05:17:09;;;;;;;52.35;46.75;;;7.80;99.90;;;;;;5067792;28;20036;-71
2023/04/09 05:19:34;;;;;;;54.75;47.83;;;7.80;99.90;;;;;;5063959;28;20067;-71
2023/04/09 05:22:00;;;;;;;54.45;48.47;;;7.80;99.90;;;;;;5067049;28;20506;-70
2023/04/09 05:24:26;;;;;;;54.35;48.47;;;7.80;99.90;;;;;;5066999;28;20035;-70
2023/04/09 05:26:51;;;;;;;54.65;48.80;;;7.80;99.90;;;;;;5069193;28;20032;-70
2023/04/09 05:29:17;;;;;;;55.65;48.47;;;7.80;99.90;;;;;;5066938;28;20059;-70
2023/04/09 05:31:42;;;;;;;53.47;47.67;;;7.80;99.90;;;;;;5064828;28;20133;-70
2023/04/09 05:34:08;;;;;;;53.92;48.08;;;7.80;99.90;;;;;;5066517;28;20040;-71
2023/04/09 05:36:34;;;;;;;54.17;48.65;;;7.80;99.90;;;;;;5066790;28;20036;-71
2023/04/09 05:38:59;;;;;;;54.40;48.72;;;7.80;99.90;;;;;;5082327;28;20391;-71
2023/04/09 05:41:25;;;;;;;55.17;49.60;;;7.80;99.90;;;;;;5106504;27;20119;-70
2023/04/09 05:43:51;;;;;;;54.47;49.28;;;7.90;99.90;;;;;;5066702;28;20092;-71
2023/04/09 05:46:16;;;;;;;58.58;52.90;;;7.90;99.90;;;;;;5051719;28;20412;-71
2023/04/09 05:48:42;;;;;;;57.60;52.13;;;7.90;99.90;;;;;;5086924;28;20052;-70
2023/04/09 05:51:08;;;;;;;65.20;59.58;;;7.90;99.90;;;;;;5068751;28;20407;-70
2023/04/09 05:53:34;;;;;;;72.93;67.47;;;7.90;99.90;;;;;;5071476;28;20036;-71
2023/04/09 05:56:00;;;;;;;85.68;79.55;;;7.90;99.90;;;;;;5068438;27;20032;-71
2023/04/09 05:58:27;;;;;;;88.38;81.93;;;7.90;99.90;;;;;;5089675;27;20036;-70
2023/04/09 06:00:53;;;;;;;111.97;104.78;;;7.90;99.90;;;;;;5086939;27;20545;-70
2023/04/09 06:03:19;;;;;;;119.10;111.55;;;7.90;99.90;;;;;;5086675;27;20035;-71
2023/04/09 06:05:45;;;;;;;111.15;104.40;;;7.90;99.90;;;;;;5073957;27;20031;-70
2023/04/09 06:08:11;;;;;;;102.43;95.60;;;8.00;99.90;;;;;;5088960;27;20527;-71
2023/04/09 06:10:37;;;;;;;129.50;121.38;;;8.00;99.90;;;;;;5088334;27;20050;-70
2023/04/09 06:13:03;;;;;;;133.05;125.28;;;8.00;99.90;;;;;;5117262;27;20426;-70
2023/04/09 06:15:28;;;;;;;137.52;129.55;;;8.00;99.90;;;;;;5105538;27;20027;-71
2023/04/09 06:17:54;;;;;;;134.18;126.05;;;8.00;99.90;;;;;;5085186;27;20035;-71
2023/04/09 06:20:20;;;;;;;125.43;117.75;;;8.10;99.90;;;;;;5084173;27;20059;-71
2023/04/09 06:22:46;;;;;;;132.00;123.80;;;8.10;99.90;;;;;;5087709;27;21105;-71
2023/04/09 06:25:12;;;;;;;130.60;122.93;;;8.10;99.90;;;;;;5085424;27;20047;-71
2023/04/09 06:27:38;;;;;;;146.18;137.30;;;8.10;99.90;;;;;;5087032;27;20038;-70
2023/04/09 06:30:04;;;;;;;141.82;133.25;;;8.20;99.90;;;;;;5086983;27;20058;-71
2023/04/09 06:32:30;;;;;;;150.20;141.68;;;8.20;99.90;;;;;;5094501;28;20410;-71
2023/04/09 06:34:55;;;;;;;136.13;128.02;;;8.20;99.90;;;;;;5073745;27;21566;-70
2023/04/09 06:37:21;;;;;;;168.27;158.27;;;8.20;99.90;;;;;;5068932;27;20044;-71
2023/04/09 06:39:47;;;;;;;129.60;121.55;;;8.30;99.90;;;;;;5106107;27;20030;-71
2023/04/09 06:42:12;;;;;;;151.85;143.02;;;8.30;99.90;;;;;;5084546;27;20506;-71
2023/04/09 06:44:38;;;;;;;153.98;145.25;;;8.30;99.90;;;;;;5088648;27;20073;-71
2023/04/09 06:47:03;;;;;;;157.35;148.30;;;8.20;99.90;;;;;;5100985;27;20048;-70
2023/04/09 06:49:29;;;;;;;151.30;142.73;;;8.20;99.90;;;;;;5070045;27;20071;-71
2023/04/09 06:51:55;;;;;;;149.30;140.88;;;8.20;99.90;;;;;;5064083;28;20440;-71
2023/04/09 06:54:20;;;;;;;161.35;152.52;;;8.20;99.90;;;;;;5117908;27;20039;-70
2023/04/09 06:56:46;;;;;;;174.68;165.43;;;8.20;99.90;;;;;;5069405;27;20035;-71
2023/04/09 06:59:12;;;;;;;171.60;161.93;;;8.30;99.90;;;;;;5072592;27;20377;-70
2023/04/09 07:01:38;;;;;;;167.82;158.43;;;8.30;99.90;;;;;;5083859;27;20071;-71
2023/04/09 07:04:04;;;;;;;166.88;157.27;;;8.30;99.90;;;;;;5080425;28;20051;-71
2023/04/09 07:06:30;;;;;;;161.68;152.73;;;8.30;99.90;;;;;;5087159;27;20047;-71
2023/04/09 07:08:56;;;;;;;169.55;160.18;;;8.40;99.90;;;;;;5086901;27;20451;-70
2023/04/09 07:11:21;;;;;;;175.15;165.50;;;8.40;99.90;;;;;;5106768;27;20042;-71
2023/04/09 07:13:47;;;;;;;171.20;161.95;;;8.40;99.90;;;;;;5084761;27;20600;-71
2023/04/09 07:16:13;;;;;;;175.95;165.95;;;8.40;99.90;;;;;;5089010;27;20124;-71
2023/04/09 07:18:38;;;;;;;173.65;164.20;;;8.50;99.90;;;;;;5104796;27;20063;-70
2023/04/09 07:21:04;;;;;;;175.25;165.43;;;8.50;99.90;;;;;;5084223;28;20600;-70
2023/04/09 07:23:33;;;;;;;146.35;137.57;;;8.50;99.90;;;;;;5083318;27;20036;-70
2023/04/09 07:26:02;;;;;;;142.43;133.95;;;8.50;99.90;;;;;;5108415;27;20438;-70
2023/04/09 07:28:27;;;;;;;143.50;135.20;;;8.60;99.90;;;;;;5082426;28;20320;-70
2023/04/09 07:30:53;;;;;;;126.18;118.78;;;8.60;99.90;;;;;;5081089;28;20047;-70
2023/04/09 07:33:19;;;;;;;130.88;123.22;;;8.60;99.90;;;;;;5064940;28;20055;-71
2023/04/09 07:35:44;;;;;;;127.22;119.53;;;8.70;99.90;;;;;;5080830;28;20040;-70
2023/04/09 07:38:10;;;;;;;139.00;130.68;;;8.70;99.90;;;;;;5081931;28;20369;-70
2023/04/09 07:40:36;;;;;;;130.15;122.20;;;8.70;99.90;;;;;;5085269;28;20058;-69
2023/04/09 07:43:02;;;;;;;123.32;115.53;;;8.80;99.90;;;;;;5098789;28;20044;-70
2023/04/09 07:45:27;;;;;;;120.47;112.70;;;8.80;99.90;;;;;;5084803;28;20040;-70
2023/04/09 07:47:53;;;;;;;121.07;113.18;;;8.80;99.90;;;;;;5081803;28;20038;-70
2023/04/09 07:50:19;;;;;;;129.07;120.95;;;8.80;99.90;;;;;;5080048;28;20428;-70
2023/04/09 07:52:45;;;;;;;121.85;113.97;;;8.80;99.90;;;;;;5076364;28;20044;-70
2023/04/09 07:55:10;;;;;;;118.60;111.03;;;8.80;99.90;;;;;;5079523;28;20036;-70
2023/04/09 07:57:36;;;;;;;122.53;115.00;;;8.90;99.90;;;;;;5083815;28;20039;-70
2023/04/09 08:00:02;;;;;;;113.13;105.82;;;8.90;99.90;;;;;;5081972;28;20044;-70
2023/04/09 08:02:28;;;;;;;115.57;108.15;;;9.00;99.90;;;;;;5069008;28;20062;-70
2023/04/09 08:04:53;;;;;;;112.82;105.55;;;9.00;99.90;;;;;;5083938;28;20476;-70
2023/04/09 08:07:19;;;;;;;121.70;113.63;;;9.10;99.90;;;;;;5071048;28;20114;-70
2023/04/09 08:09:45;;;;;;;112.82;105.43;;;9.10;99.90;;;;;;5084537;28;20140;-70
2023/04/09 08:12:11;;;;;;;108.85;101.65;;;9.20;99.90;;;;;;5086425;28;20043;-70
2023/04/09 08:14:36;;;;;;;106.97;99.38;;;9.10;99.90;;;;;;5078675;28;20032;-70
2023/04/09 08:17:03;;;;;;;102.57;95.40;;;9.10;99.90;;;;;;5084523;28;20035;-69
2023/04/09 08:19:28;;;;;;;105.63;98.47;;;9.20;99.90;;;;;;5064488;28;20040;-69
2023/04/09 08:21:54;;;;;;;107.93;100.22;;;9.30;99.90;;;;;;5080345;28;20043;-70
2023/04/09 08:24:20;;;;;;;109.32;101.72;;;9.30;99.90;;;;;;5077202;28;20032;-69
2023/04/09 08:26:46;;;;;;;103.75;96.10;;;9.40;99.90;;;;;;5084096;28;20048;-70
2023/04/09 08:29:12;;;;;;;104.28;96.88;;;9.40;99.90;;;;;;5081317;28;20052;-71
2023/04/09 08:31:38;;;;;;;88.93;81.88;;;9.40;99.90;;;;;;5088054;28;20400;-70
2023/04/09 08:34:04;;;;;;;90.25;83.07;;;9.40;99.90;;;;;;5068652;28;20039;-71
2023/04/09 08:36:31;;;;;;;92.15;84.55;;;9.40;99.90;;;;;;5082473;28;20072;-70
2023/04/09 08:38:59;;;;;;;89.63;82.50;;;9.40;99.90;;;;;;5083508;28;20179;-70
2023/04/09 08:41:28;;;;;;;103.15;95.60;;;9.40;99.90;;;;;;5062665;28;20047;-72
2023/04/09 08:43:54;;;;;;;93.97;86.60;;;9.50;99.90;;;;;;5077998;28;20082;-70
2023/04/09 08:46:21;;;;;;;91.75;84.57;;;9.50;99.90;;;;;;5083194;28;20044;-70
2023/04/09 08:48:48;;;;;;;101.70;93.95;;;9.50;99.90;;;;;;5078014;28;20053;-69
2023/04/09 08:51:23;;;;;;;80.25;73.18;;;9.50;99.90;;;;;;5085587;28;20040;-69
2023/04/09 08:53:55;;;;;;;76.07;69.57;;;9.60;99.90;;;;;;5090341;28;20089;-70
2023/04/09 08:56:22;;;;;;;73.22;66.85;;;9.60;99.90;;;;;;5079775;28;20043;-71
2023/04/09 08:58:48;;;;;;;78.20;71.00;;;9.70;99.90;;;;;;5081010;28;20047;-70
2023/04/09 09:01:27;;;;;;;77.85;71.35;;;9.80;99.90;;;;;;5080300;28;20050;-70
2023/04/09 09:04:07;;;;;;;78.78;71.88;;;9.90;99.90;;;;;;5084768;28;20062;-70
2023/04/09 09:06:38;;;;;;;79.93;73.60;;;9.90;99.90;;;;;;5087094;28;20044;-70
2023/04/09 09:09:09;;;;;;;72.38;66.00;;;9.90;99.90;;;;;;5083592;28;20418;-69
2023/04/09 09:11:40;;;;;;;76.57;70.00;;;10.00;99.90;;;;;;5087099;28;20032;-70
2023/04/09 09:14:12;;;;;;;64.78;58.22;;;10.00;99.90;;;;;;5087546;28;20036;-70
2023/04/09 09:16:42;;;;;;;69.90;63.75;;;10.00;99.90;;;;;;5069752;28;20043;-70
2023/04/09 09:19:08;;;;;;;69.95;63.40;;;10.10;99.90;;;;;;5070387;28;20475;-70
2023/04/09 09:21:35;;;;;;;72.43;66.18;;;10.20;99.90;;;;;;5072077;28;20518;-69
2023/04/09 09:24:15;;;;;;;73.57;67.38;;;10.30;99.90;;;;;;5087125;28;20047;-69
2023/04/09 09:26:41;;;;;;;72.35;65.70;;;10.40;99.90;;;;;;5086869;28;20036;-70
2023/04/09 09:29:07;;;;;;;66.15;60.13;;;10.50;99.90;;;;;;5081806;28;20125;-70
2023/04/09 09:31:48;;;;;;;65.20;59.13;;;10.50;99.90;;;;;;5088763;28;20044;-70
2023/04/09 09:34:16;;;;;;;58.80;53.30;;;10.60;99.90;;;;;;5087018;28;20051;-71
2023/04/09 09:36:42;;;;;;;61.50;55.72;;;10.60;99.90;;;;;;5088489;28;20036;-70
2023/04/09 09:39:11;;;;;;;69.13;63.45;;;10.70;99.90;;;;;;5088240;28;20118;-69
2023/04/09 09:41:38;;;;;;;65.05;59.50;;;10.80;99.90;;;;;;5090806;28;20503;-70
2023/04/09 09:44:06;;;;;;;67.38;61.55;;;10.90;99.90;;;;;;5086193;28;20047;-70
2023/04/09 09:46:40;;;;;;;71.28;65.32;;;11.00;99.90;;;;;;5086600;28;20077;-70
2023/04/09 09:49:06;;;;;;;69.40;63.10;;;11.00;99.90;;;;;;5069958;28;20143;-69
2023/04/09 09:51:35;;;;;;;70.70;64.70;;;11.00;99.90;;;;;;5089748;28;20036;-70
2023/04/09 09:54:02;;;;;;;60.22;54.63;;;11.00;99.90;;;;;;5087803;28;20051;-69
2023/04/09 09:56:34;;;;;;;74.25;67.65;;;11.00;99.90;;;;;;5088420;28;20141;-70
2023/04/09 09:59:22;;;;;;;66.45;60.38;;;11.10;99.90;;;;;;5083283;28;20127;-71
2023/04/09 10:01:58;;;;;;;71.18;65.05;;;11.10;99.90;;;;;;5085558;28;21019;-69
2023/04/09 10:04:28;;;;;;;66.20;60.13;;;11.30;99.90;;;;;;5088067;28;20040;-69
2023/04/09 10:06:55;;;;;;;64.97;58.97;;;11.40;99.90;;;;;;5086309;28;20493;-70
2023/04/09 10:09:25;;;;;;;67.13;61.38;;;11.50;99.90;;;;;;5088463;28;20815;-69
2023/04/09 10:11:51;;;;;;;61.42;56.08;;;11.60;99.90;;;;;;5087525;28;20040;-69
2023/04/09 10:14:17;;;;;;;72.72;66.82;;;11.80;99.90;;;;;;5071082;28;20120;-70
2023/04/09 10:16:43;;;;;;;74.95;68.97;;;11.90;99.90;;;;;;5084879;28;20039;-70
2023/04/09 10:19:12;;;;;;;80.68;74.43;;;12.00;99.90;;;;;;5086740;28;20048;-69
2023/04/09 10:21:49;;;;;;;59.45;53.88;;;12.00;99.90;;;;;;5083653;28;20052;-70
2023/04/09 10:24:15;;;;;;;73.20;67.25;;;12.10;99.90;;;;;;5086257;28;20399;-70
2023/04/09 10:26:43;;;;;;;54.05;48.75;;;12.20;99.90;;;;;;5084148;28;20556;-70
2023/04/09 10:29:14;;;;;;;55.85;50.75;;;12.30;99.90;;;;;;5111070;27;20403;-69
2023/04/09 10:32:01;;;;;;;78.95;73.20;;;12.40;99.90;;;;;;5075234;28;20491;-69
2023/04/09 10:34:27;;;;;;;88.85;82.60;;;12.50;99.90;;;;;;5073884;28;20403;-69
2023/04/09 10:36:56;;;;;;;62.40;57.30;;;12.70;99.90;;;;;;5090000;28;20048;-70
2023/04/09 10:39:38;;;;;;;84.70;78.32;;;12.90;99.90;;;;;;5092414;28;20525;-69
2023/04/09 10:42:10;;;;;;;48.08;43.53;;;13.10;99.90;;;;;;5108709;28;20058;-69
2023/04/09 10:44:40;;;;;;;47.10;42.45;;;13.20;99.90;;;;;;5090515;28;20032;-70
2023/04/09 10:47:06;;;;;;;54.25;49.28;;;13.20;99.90;;;;;;5089677;28;20533;-70
2023/04/09 10:49:38;;;;;;;42.40;38.05;;;13.20;99.90;;;;;;5110180;27;20757;-70
2023/04/09 10:52:09;;;;;;;51.55;46.95;;;13.30;99.90;;;;;;5089343;28;20042;-70
2023/04/09 10:54:49;;;;;;;51.72;47.13;;;13.40;99.90;;;;;;5088335;28;20043;-69
2023/04/09 10:57:18;;;;;;;49.33;44.47;;;13.70;99.90;;;;;;5090078;28;20463;-71
2023/04/09 10:59:45;;;;;;;43.55;39.05;;;14.00;99.90;;;;;;5072005;28;20096;-71
2023/04/09 11:02:47;;;;;;;43.13;38.63;;;14.20;99.90;;;;;;5088358;28;20059;-70
2023/04/09 11:05:33;;;;;;;47.75;43.03;;;14.20;99.90;;;;;;5072899;28;20481;-69
2023/04/09 11:08:08;;;;;;;61.83;56.67;;;14.20;99.90;;;;;;5123325;27;20086;-71
2023/04/09 11:10:34;;;;;;;40.40;34.95;;;14.50;99.90;;;;;;5085770;28;20120;-70
2023/04/09 11:13:01;;;;;;;38.63;34.60;;;14.80;99.90;;;;;;5089559;28;20035;-70
2023/04/09 11:15:26;;;;;;;39.42;35.33;;;15.00;99.90;;;;;;5088290;28;20042;-70
2023/04/09 11:17:52;;;;;;;40.42;36.22;;;15.20;99.90;;;;;;5087279;28;20444;-70
2023/04/09 11:20:23;;;;;;;36.25;32.38;;;15.40;99.90;;;;;;5089708;28;20031;-70
2023/04/09 11:22:50;;;;;;;36.58;32.67;;;15.50;99.90;;;;;;5071640;28;20517;-71
2023/04/09 11:25:25;;;;;;;36.60;32.25;;;15.40;99.90;;;;;;5089264;28;20050;-71
2023/04/09 11:27:51;;;;;;;34.17;30.58;;;15.40;99.90;;;;;;5088464;28;20035;-69
2023/04/09 11:30:17;;;;;;;34.08;30.50;;;15.50;99.90;;;;;;5071182;28;20459;-70
2023/04/09 11:32:43;;;;;;;34.78;31.05;;;15.60;99.90;;;;;;5107848;28;20471;-71
2023/04/09 11:35:12;;;;;;;34.67;30.00;;;15.60;99.90;;;;;;5086983;28;20039;-70
2023/04/09 11:37:38;;;;;;;33.42;29.75;;;15.70;99.90;;;;;;5088977;28;20036;-71
2023/04/09 11:40:04;;;;;;;31.92;28.45;;;15.80;99.90;;;;;;5089933;28;20048;-71
2023/04/09 11:42:30;;;;;;;32.30;28.83;;;15.80;99.90;;;;;;5090470;28;20050;-70
2023/04/09 11:44:57;;;;;;;34.65;31.15;;;15.70;99.90;;;;;;5087870;28;20502;-71
2023/04/09 11:47:23;;;;;;;34.45;30.95;;;15.90;99.90;;;;;;5071169;28;20040;-70
2023/04/09 11:49:49;;;;;;;31.75;27.42;;;16.00;99.90;;;;;;5087197;28;20041;-70
2023/04/09 11:52:15;;;;;;;32.67;29.42;;;16.20;99.90;;;;;;5089228;28;20031;-71
2023/04/09 11:54:42;;;;;;;33.63;30.13;;;16.40;99.90;;;;;;5107152;27;20034;-71
2023/04/09 11:57:07;;;;;;;30.58;27.27;;;16.50;99.90;;;;;;5087511;28;20102;-71
2023/04/09 11:59:33;;;;;;;33.75;30.15;;;16.40;99.90;;;;;;5085179;28;20207;-71
2023/04/09 12:02:00;;;;;;;32.70;29.42;;;16.40;99.90;;;;;;5069467;28;20096;-71
2023/04/09 12:04:25;;;;;;;42.40;38.35;;;16.50;99.90;;;;;;5086245;28;20372;-71
2023/04/09 12:06:57;;;;;;;27.02;23.83;;;16.60;99.90;;;;;;5093613;28;20043;-71
2023/04/09 12:09:23;;;;;;;32.97;29.77;;;16.60;99.90;;;;;;5085370;28;20043;-69
2023/04/09 12:11:49;;;;;;;33.17;29.92;;;16.40;99.90;;;;;;5088464;28;20461;-69
2023/04/09 12:14:16;;;;;;;33.88;30.48;;;16.50;99.90;;;;;;5106232;28;20084;-70
2023/04/09 12:16:45;;;;;;;43.13;39.53;;;16.40;99.90;;;;;;5071828;28;20040;-71
2023/04/09 12:19:12;;;;;;;46.70;42.85;;;16.20;99.90;;;;;;5087394;28;20094;-70
2023/04/09 12:22:04;;;;;;;44.55;40.92;;;15.90;99.90;;;;;;5070482;28;20425;-70
2023/04/09 12:24:30;;;;;;;39.97;36.47;;;15.60;99.90;;;;;;5082611;28;20532;-70
2023/04/09 12:26:56;;;;;;;33.15;29.90;;;15.60;99.90;;;;;;5103833;28;20039;-69
2023/04/09 12:29:21;;;;;;;35.80;32.40;;;15.80;99.90;;;;;;5088124;28;20062;-71
2023/04/09 12:31:48;;;;;;;35.30;31.90;;;16.20;99.90;;;;;;5071434;28;20459;-71